createdAt,value
2017-09-04T00:00:01.545Z,10.3
2017-09-04T00:05:01.810Z,10.3
2017-09-04T00:10:01.548Z,10.2
2017-09-04T00:15:03.265Z,10.2
2017-09-04T00:20:01.838Z,10.2
2017-09-04T00:25:01.943Z,10.2
2017-09-04T00:30:01.764Z,10.1
2017-09-04T00:35:01.787Z,10.1
2017-09-04T00:40:01.518Z,10
2017-09-04T00:45:02.003Z,10
2017-09-04T00:50:01.607Z,10
2017-09-04T00:55:01.679Z,10
2017-09-04T01:00:01.366Z,9.9
2017-09-04T01:05:02.004Z,9.9
2017-09-04T01:10:01.773Z,9.9
2017-09-04T01:15:03.732Z,9.8
2017-09-04T01:20:01.306Z,9.8
2017-09-04T01:25:04.869Z,9.8
2017-09-04T01:30:01.604Z,9.8
2017-09-04T01:35:01.848Z,9.8
2017-09-04T01:40:01.557Z,9.8
2017-09-04T01:45:01.801Z,9.7
2017-09-04T01:50:01.561Z,9.7
2017-09-04T01:55:01.671Z,9.7
2017-09-04T02:00:01.773Z,9.7
2017-09-04T02:05:01.796Z,9.6
2017-09-04T02:10:01.868Z,9.6
2017-09-04T02:15:01.200Z,9.6
2017-09-04T02:20:02.135Z,9.5
2017-09-04T02:25:01.427Z,9.5
2017-09-04T02:30:01.887Z,9.5
2017-09-04T02:35:01.594Z,9.5
2017-09-04T02:40:02.498Z,9.5
2017-09-04T02:45:01.683Z,9.5
2017-09-04T02:50:01.469Z,9.5
2017-09-04T02:55:02.641Z,9.5
2017-09-04T03:00:01.489Z,9.5
2017-09-04T03:05:01.991Z,9.5
2017-09-04T03:10:06.718Z,9.4
2017-09-04T03:15:01.355Z,9.3
2017-09-04T03:20:01.856Z,9.2
2017-09-04T03:25:02.160Z,9.2
2017-09-04T03:30:01.142Z,9.2
2017-09-04T03:35:01.392Z,9.2
2017-09-04T03:40:01.384Z,9.1
2017-09-04T03:45:01.737Z,9.1
2017-09-04T03:50:05.423Z,9.1
2017-09-04T03:55:01.944Z,9.1
2017-09-04T04:00:02.004Z,9.1
2017-09-04T04:05:01.229Z,9.1
2017-09-04T04:10:02.061Z,9.2
2017-09-04T04:15:01.225Z,9.2
2017-09-04T04:20:01.974Z,9.2
2017-09-04T04:25:01.425Z,9.3
2017-09-04T04:30:01.224Z,9.3
2017-09-04T04:35:01.618Z,9.3
2017-09-04T04:40:01.366Z,9.3
2017-09-04T04:45:01.514Z,9.3
2017-09-04T04:50:01.401Z,9.4
2017-09-04T04:55:01.432Z,9.4
2017-09-04T05:00:01.424Z,9.3
2017-09-04T05:05:01.869Z,9.3
2017-09-04T05:10:01.621Z,9.3
2017-09-04T05:15:01.393Z,9.3
2017-09-04T05:20:01.293Z,9.3
2017-09-04T05:25:01.751Z,9.4
2017-09-04T05:30:01.862Z,9.3
2017-09-04T05:35:02.110Z,9.4
2017-09-04T05:40:01.901Z,9.4
2017-09-04T05:45:01.317Z,9.5
2017-09-04T05:50:01.199Z,9.5
2017-09-04T05:55:01.440Z,9.6
2017-09-04T06:00:01.508Z,9.6
2017-09-04T06:05:01.408Z,10
2017-09-04T06:10:01.463Z,10
2017-09-04T06:15:01.957Z,10.5
2017-09-04T06:20:01.763Z,10.5
2017-09-04T06:25:01.742Z,10.5
2017-09-04T06:30:01.762Z,11.1
2017-09-04T06:35:01.940Z,11.1
2017-09-04T06:40:01.821Z,11.6
2017-09-04T06:45:01.379Z,11.7
2017-09-04T06:50:01.383Z,12.1
2017-09-04T06:55:01.935Z,12.1
2017-09-04T07:00:02.056Z,12.4
2017-09-04T07:05:01.224Z,12.7
2017-09-04T07:10:01.546Z,12.8
2017-09-04T07:15:01.296Z,13.1
2017-09-04T07:20:02.009Z,13.1
2017-09-04T07:25:01.988Z,13.4
2017-09-04T07:30:02.088Z,13.6
2017-09-04T07:35:01.836Z,13.9
2017-09-04T07:40:01.575Z,14
2017-09-04T07:45:01.680Z,14.3
2017-09-04T07:50:01.729Z,14.4
2017-09-04T07:55:01.470Z,14.8
2017-09-04T08:00:01.562Z,15
2017-09-04T08:05:02.070Z,15
2017-09-04T08:10:01.830Z,15
2017-09-04T08:15:01.895Z,15
2017-09-04T08:20:01.632Z,15.2
2017-09-04T08:25:01.619Z,15.4
2017-09-04T08:30:01.559Z,15.8
2017-09-04T08:35:02.135Z,15.8
2017-09-04T08:40:01.803Z,16.3
2017-09-04T08:45:01.849Z,16.6
2017-09-04T08:50:01.731Z,16.7
2017-09-04T08:55:01.574Z,16.9
2017-09-04T09:00:01.254Z,16.9
2017-09-04T09:05:02.162Z,16.9
2017-09-04T09:10:01.981Z,17.4
2017-09-04T09:15:02.146Z,17.4
2017-09-04T09:20:01.725Z,17.6
2017-09-04T09:25:01.630Z,17.6
2017-09-04T09:30:01.981Z,17.6
2017-09-04T09:35:01.187Z,18
2017-09-04T09:40:01.932Z,18.3
2017-09-04T09:45:01.494Z,18.3
2017-09-04T09:50:01.451Z,18.4
2017-09-04T09:55:01.967Z,18.4
2017-09-04T10:00:02.159Z,18.4
2017-09-04T10:05:02.005Z,18.4
2017-09-04T10:10:01.933Z,18.4
2017-09-04T10:15:02.111Z,18.4
2017-09-04T10:20:01.857Z,19
2017-09-04T10:25:01.393Z,19
2017-09-04T10:30:01.698Z,19.2
2017-09-04T10:35:01.439Z,19.2
2017-09-04T10:40:02.160Z,19.2
2017-09-04T10:45:01.425Z,19.3
2017-09-04T10:50:01.476Z,19.4
2017-09-04T10:55:01.333Z,19.4
2017-09-04T11:00:01.588Z,19.4
2017-09-04T11:05:01.505Z,19.4
2017-09-04T11:10:01.381Z,19.6
2017-09-04T11:15:02.110Z,19.5
2017-09-04T11:20:01.935Z,19.5
2017-09-04T11:25:02.040Z,19.5
2017-09-04T11:30:01.336Z,19.4
2017-09-04T11:35:01.656Z,19.4
2017-09-04T11:40:01.825Z,19.3
2017-09-04T11:45:01.776Z,19.4
2017-09-04T11:50:01.656Z,19.4
2017-09-04T11:55:01.544Z,19.3
2017-09-04T12:00:01.895Z,19.3
2017-09-04T12:05:01.241Z,19.3
2017-09-04T12:10:01.968Z,19.3
2017-09-04T12:15:01.401Z,19.3
2017-09-04T12:20:02.163Z,19.4
2017-09-04T12:25:02.074Z,19.3
2017-09-04T12:30:01.491Z,19.4
2017-09-04T12:35:02.113Z,19.4
2017-09-04T12:40:01.777Z,19.4
2017-09-04T12:45:01.335Z,19.4
2017-09-04T12:50:01.321Z,19.4
2017-09-04T12:55:02.041Z,19.4
2017-09-04T13:00:01.383Z,19.4
2017-09-04T13:05:01.537Z,19.4
2017-09-04T13:10:01.763Z,19.6
2017-09-04T13:15:02.100Z,19.6
2017-09-04T13:20:01.372Z,19.5
2017-09-04T13:25:01.929Z,19.5
2017-09-04T13:30:01.396Z,19.6
2017-09-04T13:35:01.784Z,19.6
2017-09-04T13:40:01.449Z,19.6
2017-09-04T13:45:01.419Z,19.6
2017-09-04T13:50:01.595Z,19.6
2017-09-04T13:55:02.051Z,19.6
2017-09-04T14:00:01.573Z,19.6
2017-09-04T14:05:01.425Z,19.6
2017-09-04T14:10:01.555Z,19.6
2017-09-04T14:15:01.321Z,19.6
2017-09-04T14:20:02.002Z,19.6
2017-09-04T14:25:01.406Z,19.6
2017-09-04T14:30:01.476Z,19.6
2017-09-04T14:35:02.142Z,19.6
2017-09-04T14:40:01.911Z,19.6
2017-09-04T14:45:01.594Z,19.6
2017-09-04T14:50:01.557Z,19.6
2017-09-04T14:55:01.247Z,19.5
2017-09-04T15:00:01.417Z,19.5
2017-09-04T15:05:01.588Z,19.4
2017-09-04T15:10:01.393Z,19.4
2017-09-04T15:15:01.168Z,19.4
2017-09-04T15:20:02.052Z,19.4
2017-09-04T15:25:01.571Z,19.4
2017-09-04T15:30:01.661Z,19.4
2017-09-04T15:35:02.087Z,19.2
2017-09-04T15:40:01.265Z,19.2
2017-09-04T15:45:01.633Z,19.2
2017-09-04T15:50:01.630Z,19.2
2017-09-04T15:55:01.449Z,19.2
2017-09-04T16:00:01.584Z,19.2
2017-09-04T16:05:01.963Z,19.2
2017-09-04T16:10:01.797Z,19.2
2017-09-04T16:15:02.040Z,19.1
2017-09-04T16:20:02.083Z,19.1
2017-09-04T16:25:01.941Z,19.1
2017-09-04T16:30:01.229Z,19
2017-09-04T16:35:01.463Z,18.9
2017-09-04T16:40:01.237Z,18.8
2017-09-04T16:45:01.346Z,18.8
2017-09-04T16:50:01.315Z,18.7
2017-09-04T16:55:02.078Z,18.7
2017-09-04T17:00:02.148Z,18.7
2017-09-04T17:05:01.803Z,18.7
2017-09-04T17:10:01.363Z,18.7
2017-09-04T17:15:02.136Z,18.2
2017-09-04T17:20:01.476Z,18
2017-09-04T17:25:02.193Z,17.9
2017-09-04T17:30:01.781Z,17.8
2017-09-04T17:35:01.761Z,17.8
2017-09-04T17:40:02.006Z,17.6
2017-09-04T17:45:01.309Z,17.3
2017-09-04T17:50:01.381Z,17.3
2017-09-04T17:55:01.873Z,17.1
2017-09-04T18:00:02.147Z,16.8
2017-09-04T18:05:01.437Z,16.8
2017-09-04T18:10:01.475Z,16.8
2017-09-04T18:15:01.688Z,16.5
2017-09-04T18:20:01.657Z,16.3
2017-09-04T18:25:01.645Z,16.1
2017-09-04T18:30:02.125Z,16
2017-09-04T18:35:01.596Z,15.8
2017-09-04T18:40:01.618Z,15.8
2017-09-04T18:45:01.718Z,15.4
2017-09-04T18:50:01.908Z,15.4
2017-09-04T18:55:02.004Z,15
2017-09-04T19:00:02.229Z,15
2017-09-04T19:05:01.533Z,15
2017-09-04T19:10:02.039Z,15
2017-09-04T19:15:02.087Z,15
2017-09-04T19:20:01.607Z,14.6
2017-09-04T19:25:02.018Z,14.5
2017-09-04T19:30:01.449Z,14.3
2017-09-04T19:35:02.135Z,14.3
2017-09-04T19:40:01.642Z,14
2017-09-04T19:45:01.739Z,13.9
2017-09-04T19:50:01.993Z,13.9
2017-09-04T19:55:01.607Z,13.6
2017-09-04T20:00:01.896Z,13.6
2017-09-04T20:05:01.898Z,13.4
2017-09-04T20:10:01.564Z,13.3
2017-09-04T20:15:02.002Z,13.2
2017-09-04T20:20:01.812Z,13.2
2017-09-04T20:25:01.969Z,13.2
2017-09-04T20:30:01.300Z,13
2017-09-04T20:35:01.517Z,13
2017-09-04T20:40:02.307Z,12.8
2017-09-04T20:45:01.922Z,12.6
2017-09-04T20:50:01.623Z,12.6
2017-09-04T20:55:02.076Z,12.5
2017-09-04T21:00:02.135Z,12.4
2017-09-04T21:05:02.220Z,12.4
2017-09-04T21:10:01.265Z,12.4
2017-09-04T21:15:01.363Z,12.1
2017-09-04T21:20:01.501Z,12.1
2017-09-04T21:25:01.729Z,12
2017-09-04T21:30:01.879Z,12
2017-09-04T21:35:01.607Z,11.8
2017-09-04T21:40:01.856Z,11.7
2017-09-04T21:45:01.947Z,11.7
2017-09-04T21:50:01.905Z,11.6
2017-09-04T21:55:01.405Z,11.6
2017-09-04T22:00:01.607Z,11.5
2017-09-04T22:05:01.828Z,11.5
2017-09-04T22:10:02.216Z,11.4
2017-09-04T22:15:01.823Z,11.3
2017-09-04T22:20:02.156Z,11.2
2017-09-04T22:25:01.571Z,11.2
2017-09-04T22:30:01.415Z,11
2017-09-04T22:35:01.750Z,11
2017-09-04T22:40:01.590Z,10.9
2017-09-04T22:45:01.524Z,10.9
2017-09-04T22:50:01.331Z,10.8
2017-09-04T22:55:01.261Z,10.8
2017-09-04T23:00:02.940Z,10.8
2017-09-04T23:05:01.713Z,10.8
2017-09-04T23:10:01.493Z,10.8
2017-09-04T23:15:02.040Z,10.8
2017-09-04T23:20:01.783Z,10.7
2017-09-04T23:25:01.774Z,10.6
2017-09-04T23:30:01.509Z,10.6
2017-09-04T23:35:01.461Z,10.5
2017-09-04T23:40:02.147Z,10.5
2017-09-04T23:45:01.206Z,10.4
2017-09-04T23:50:02.097Z,10.4
2017-09-04T23:55:01.930Z,10.3
